Time;durP1;ratioP1;P1;durP2;ratioP2;P2;SDS_P1;SDS_P2;PMS_P1;PMS_P2;Temp;Humidity;BMP_temperature;BMP_pressure;BME280_temperature;BME280_humidity;BME280_pressure;Samples;Min_cycle;Max_cycle;Signal;HPM_P1;HPM_P2
2023/04/15 00:02:17;;;;;;;11.50;9.77;;;4.30;99.90;;;;;;4999697;28;20183;-80
2023/04/15 00:04:44;;;;;;;12.23;8.83;;;4.30;99.90;;;;;;5018555;28;20592;-80
2023/04/15 00:07:10;;;;;;;14.07;10.70;;;4.40;99.90;;;;;;5019502;28;20175;-80
2023/04/15 00:09:36;;;;;;;11.27;10.07;;;4.50;99.90;;;;;;5001272;28;20168;-79
2023/04/15 00:12:02;;;;;;;12.07;9.87;;;4.60;99.90;;;;;;5000590;28;20536;-79
2023/04/15 00:14:28;;;;;;;14.40;10.17;;;4.60;99.90;;;;;;4997929;28;20306;-79
2023/04/15 00:16:56;;;;;;;11.77;10.33;;;4.60;99.90;;;;;;5000178;28;20211;-79
2023/04/15 00:19:23;;;;;;;11.93;10.17;;;4.40;99.90;;;;;;4999340;28;20299;-79
2023/04/15 00:21:48;;;;;;;13.13;10.03;;;4.30;99.90;;;;;;4999896;28;20556;-79
2023/04/15 00:24:14;;;;;;;11.10;10.00;;;4.40;99.90;;;;;;5021692;28;20207;-79
2023/04/15 00:26:40;;;;;;;12.97;9.03;;;4.30;99.90;;;;;;5021782;28;20660;-79
2023/04/15 00:29:06;;;;;;;13.40;9.67;;;4.10;99.90;;;;;;5024097;28;20182;-79
2023/04/15 00:31:31;;;;;;;12.27;10.17;;;4.00;99.90;;;;;;5024132;28;20187;-79
2023/04/15 00:33:58;;;;;;;11.87;10.30;;;3.80;99.90;;;;;;4997693;28;20206;-79
2023/04/15 00:36:25;;;;;;;11.23;10.00;;;3.80;99.90;;;;;;5017072;28;20172;-80
2023/04/15 00:38:50;;;;;;;13.07;8.93;;;3.80;99.90;;;;;;5017145;28;20200;-80
2023/04/15 00:41:18;;;;;;;14.40;10.57;;;3.70;99.90;;;;;;5001342;28;20187;-80
2023/04/15 00:43:43;;;;;;;11.90;10.17;;;3.70;99.90;;;;;;5022023;28;20203;-81
2023/04/15 00:46:13;;;;;;;15.47;10.23;;;3.80;99.90;;;;;;5004153;28;20176;-80
2023/04/15 00:48:39;;;;;;;10.40;9.30;;;3.80;99.90;;;;;;5000518;28;20180;-79
2023/04/15 00:51:06;;;;;;;12.47;10.10;;;3.80;99.90;;;;;;5017518;28;20176;-79
2023/04/15 00:53:32;;;;;;;12.13;10.13;;;3.80;99.90;;;;;;5016942;28;20182;-79
2023/04/15 00:55:57;;;;;;;11.17;9.30;;;3.70;99.90;;;;;;5017744;28;20180;-79
2023/04/15 00:58:23;;;;;;;12.40;9.73;;;3.80;99.90;;;;;;4999528;28;20203;-79
2023/04/15 01:00:53;;;;;;;12.47;9.70;;;3.70;99.90;;;;;;5017824;28;20226;-79
2023/04/15 01:03:19;;;;;;;12.67;9.37;;;3.80;99.90;;;;;;5017716;28;20664;-79
2023/04/15 01:05:45;;;;;;;14.03;10.13;;;3.90;99.90;;;;;;4999989;28;20695;-79
2023/04/15 01:08:11;;;;;;;12.73;10.63;;;4.00;99.90;;;;;;5000234;28;20223;-79
2023/04/15 01:10:38;;;;;;;14.67;11.10;;;4.10;99.90;;;;;;5018922;28;20199;-79
2023/04/15 01:13:04;;;;;;;12.47;10.67;;;4.20;99.90;;;;;;5001508;28;20187;-78
2023/04/15 01:15:30;;;;;;;13.60;11.40;;;4.00;99.90;;;;;;5000693;28;20311;-80
2023/04/15 01:18:01;;;;;;;13.30;11.07;;;4.00;99.90;;;;;;5000808;28;20238;-80
2023/04/15 01:20:28;;;;;;;16.27;12.10;;;4.10;99.90;;;;;;5018615;28;20229;-80
2023/04/15 01:22:55;;;;;;;12.73;10.63;;;4.00;99.90;;;;;;5018067;28;20185;-80
2023/04/15 01:25:33;;;;;;;16.27;11.70;;;3.80;99.90;;;;;;5019177;28;20211;-81
2023/04/15 01:28:00;;;;;;;14.47;10.83;;;3.80;99.90;;;;;;5022054;28;20152;-81
2023/04/15 01:30:26;;;;;;;20.53;12.07;;;3.90;99.90;;;;;;5022042;28;20168;-81
2023/04/15 01:32:53;;;;;;;15.67;11.60;;;4.00;99.90;;;;;;5003887;28;20187;-81
2023/04/15 01:35:20;;;;;;;11.90;10.57;;;3.90;99.90;;;;;;5021278;28;20234;-79
2023/04/15 01:37:46;;;;;;;14.27;11.57;;;3.70;99.90;;;;;;5020025;28;20171;-80
2023/04/15 01:40:12;;;;;;;14.30;12.33;;;3.80;99.90;;;;;;5002945;28;20620;-80
2023/04/15 01:42:38;;;;;;;17.47;11.57;;;3.90;99.90;;;;;;5002292;28;20310;-80
2023/04/15 01:45:05;;;;;;;14.87;11.63;;;3.90;99.90;;;;;;5002812;28;20236;-80
2023/04/15 01:47:31;;;;;;;12.33;10.40;;;3.90;99.90;;;;;;5020350;28;20164;-80
2023/04/15 01:49:56;;;;;;;13.43;10.50;;;3.90;99.90;;;;;;5002930;28;20187;-81
2023/04/15 01:52:22;;;;;;;15.47;10.37;;;3.80;99.90;;;;;;5021537;28;20259;-80
2023/04/15 01:54:48;;;;;;;17.13;10.10;;;3.70;99.90;;;;;;5020137;28;20199;-80
2023/04/15 01:57:13;;;;;;;12.67;9.57;;;3.70;99.90;;;;;;5002788;28;20176;-80
2023/04/15 01:59:39;;;;;;;10.90;9.57;;;3.70;99.90;;;;;;5020405;28;20282;-80
2023/04/15 02:02:05;;;;;;;12.50;10.83;;;3.50;99.90;;;;;;5019894;28;20195;-81
2023/04/15 02:04:31;;;;;;;14.80;10.57;;;3.40;99.90;;;;;;5020165;28;20195;-81
2023/04/15 02:06:57;;;;;;;14.17;10.13;;;3.30;99.90;;;;;;5001970;28;20259;-81
2023/04/15 02:09:22;;;;;;;16.33;10.50;;;3.30;99.90;;;;;;5004203;28;20656;-82
2023/04/15 02:11:49;;;;;;;13.87;11.23;;;3.40;99.90;;;;;;5020240;28;20179;-81
2023/04/15 02:14:15;;;;;;;16.87;11.23;;;3.30;99.90;;;;;;5020332;28;20242;-82
2023/04/15 02:16:40;;;;;;;16.57;11.30;;;3.20;99.90;;;;;;5020436;28;20644;-82
2023/04/15 02:19:06;;;;;;;13.73;10.80;;;3.00;99.90;;;;;;5020675;28;20203;-81
2023/04/15 02:21:34;;;;;;;13.90;11.23;;;2.90;99.90;;;;;;5020243;28;20175;-81
2023/04/15 02:24:01;;;;;;;14.33;10.53;;;2.80;99.90;;;;;;5022996;28;20745;-81
2023/04/15 02:26:27;;;;;;;17.80;10.37;;;2.80;99.90;;;;;;5025511;28;20708;-81
2023/04/15 02:28:52;;;;;;;11.37;10.17;;;2.80;99.90;;;;;;5008279;28;20214;-81
2023/04/15 02:31:18;;;;;;;11.87;10.10;;;2.80;99.90;;;;;;5025006;28;20180;-81
2023/04/15 02:33:44;;;;;;;13.23;10.77;;;2.70;99.90;;;;;;5002207;28;20210;-81
2023/04/15 02:36:11;;;;;;;12.90;10.30;;;2.70;99.90;;;;;;5001970;28;20180;-79
2023/04/15 02:38:39;;;;;;;15.67;11.00;;;2.70;99.90;;;;;;5018229;28;20199;-81
2023/04/15 02:41:05;;;;;;;13.37;10.80;;;2.60;99.90;;;;;;5000742;28;20656;-82
2023/04/15 02:43:30;;;;;;;11.20;10.10;;;2.80;99.90;;;;;;5018314;28;20168;-82
2023/04/15 02:45:56;;;;;;;15.20;11.07;;;3.00;99.90;;;;;;5018863;28;20178;-82
2023/04/15 02:48:22;;;;;;;11.70;10.50;;;2.90;99.90;;;;;;5018643;28;20180;-81
2023/04/15 02:50:48;;;;;;;13.00;10.70;;;2.80;99.90;;;;;;5000648;28;20555;-81
2023/04/15 02:53:13;;;;;;;13.30;10.47;;;2.90;99.90;;;;;;5001444;28;20179;-81
2023/04/15 02:55:40;;;;;;;12.47;10.50;;;3.00;99.90;;;;;;5019965;28;20176;-82
2023/04/15 02:58:06;;;;;;;14.00;10.63;;;3.00;99.90;;;;;;5019582;28;20199;-82
2023/04/15 03:00:32;;;;;;;11.83;10.60;;;3.10;99.90;;;;;;5020137;28;20599;-82
2023/04/15 03:03:00;;;;;;;14.33;11.07;;;3.10;99.90;;;;;;5019787;28;20176;-82
2023/04/15 03:05:26;;;;;;;13.27;10.23;;;3.00;99.90;;;;;;5018946;28;20191;-81
2023/04/15 03:07:52;;;;;;;12.87;10.80;;;2.90;99.90;;;;;;5001492;28;20549;-80
2023/04/15 03:10:18;;;;;;;13.70;10.40;;;2.80;99.90;;;;;;5018898;28;20175;-81
2023/04/15 03:12:45;;;;;;;12.83;11.37;;;2.80;99.90;;;;;;5019076;28;20262;-81
2023/04/15 03:15:11;;;;;;;13.67;11.90;;;2.80;99.90;;;;;;5000863;28;20219;-81
2023/04/15 03:17:37;;;;;;;18.27;14.30;;;2.70;99.90;;;;;;5000914;28;20207;-80
2023/04/15 03:20:04;;;;;;;41.27;24.47;;;2.70;99.90;;;;;;5001132;28;20257;-80
2023/04/15 03:22:30;;;;;;;36.77;22.50;;;2.70;99.90;;;;;;5018827;28;20164;-80
2023/04/15 03:24:56;;;;;;;31.23;20.57;;;2.80;99.90;;;;;;5001707;28;20231;-81
2023/04/15 03:27:22;;;;;;;27.07;18.30;;;2.80;99.90;;;;;;5002871;28;20181;-81
2023/04/15 03:29:48;;;;;;;22.67;16.10;;;2.70;99.90;;;;;;5023236;28;20167;-80
2023/04/15 03:32:14;;;;;;;24.03;16.73;;;2.60;99.90;;;;;;5005561;28;20202;-81
2023/04/15 03:34:41;;;;;;;23.40;16.47;;;2.50;99.90;;;;;;5001566;28;20578;-81
2023/04/15 03:37:07;;;;;;;33.20;20.97;;;2.40;99.90;;;;;;5020636;28;20226;-81
2023/04/15 03:39:33;;;;;;;30.30;20.93;;;2.40;99.90;;;;;;5019983;28;20742;-81
2023/04/15 03:42:00;;;;;;;22.87;18.30;;;2.40;99.90;;;;;;5020734;28;20193;-82
2023/04/15 03:44:26;;;;;;;21.77;15.40;;;2.30;99.90;;;;;;5002018;28;20274;-82
2023/04/15 03:46:52;;;;;;;14.87;11.60;;;2.30;99.90;;;;;;5017783;28;20637;-82
2023/04/15 03:49:18;;;;;;;15.30;12.20;;;2.20;99.90;;;;;;4999066;28;20205;-82
2023/04/15 03:51:44;;;;;;;13.73;12.07;;;2.20;99.90;;;;;;5017563;28;20259;-79
2023/04/15 03:54:11;;;;;;;13.67;12.30;;;2.10;99.90;;;;;;4998210;28;20207;-79
2023/04/15 03:56:37;;;;;;;13.43;10.77;;;2.10;99.90;;;;;;4998326;28;20552;-78
2023/04/15 03:59:03;;;;;;;13.53;11.93;;;2.20;99.90;;;;;;4998067;28;20215;-78
2023/04/15 04:01:29;;;;;;;14.77;11.60;;;2.30;99.90;;;;;;5016847;28;20176;-79
2023/04/15 04:03:54;;;;;;;15.83;12.63;;;2.40;99.90;;;;;;5017365;28;20655;-80
2023/04/15 04:06:20;;;;;;;17.23;12.63;;;2.50;99.90;;;;;;5017652;28;20604;-81
2023/04/15 04:08:46;;;;;;;17.83;13.83;;;2.50;99.90;;;;;;5017604;28;20183;-80
2023/04/15 04:11:12;;;;;;;18.77;15.07;;;2.60;99.90;;;;;;5017266;28;20180;-80
2023/04/15 04:13:38;;;;;;;18.73;14.07;;;2.60;99.90;;;;;;4999411;28;20215;-81
2023/04/15 04:16:04;;;;;;;19.07;14.33;;;2.60;99.90;;;;;;5000196;28;20203;-82
2023/04/15 04:18:31;;;;;;;23.03;13.87;;;2.70;99.90;;;;;;5018051;28;20195;-83
2023/04/15 04:20:57;;;;;;;17.90;13.87;;;2.60;99.90;;;;;;5000431;28;20183;-81
2023/04/15 04:23:22;;;;;;;17.97;14.03;;;2.60;99.90;;;;;;5000204;28;20172;-81
2023/04/15 04:25:48;;;;;;;18.03;14.17;;;2.60;99.90;;;;;;5000632;28;20179;-81
2023/04/15 04:28:14;;;;;;;18.17;13.67;;;2.70;99.90;;;;;;5018465;28;20306;-80
2023/04/15 04:30:39;;;;;;;17.90;13.47;;;2.70;99.90;;;;;;5018324;28;20176;-80
2023/04/15 04:33:06;;;;;;;17.20;13.67;;;2.70;99.90;;;;;;5001461;28;20206;-82
2023/04/15 04:35:33;;;;;;;15.70;12.07;;;2.70;99.90;;;;;;5000914;28;20202;-82
2023/04/15 04:38:00;;;;;;;16.50;13.30;;;2.80;99.90;;;;;;5001593;28;20226;-81
2023/04/15 04:40:26;;;;;;;14.70;12.97;;;2.70;99.90;;;;;;5018943;28;20176;-81
2023/04/15 04:42:53;;;;;;;16.60;12.67;;;2.70;99.90;;;;;;5019084;28;20176;-80
2023/04/15 04:45:19;;;;;;;15.17;12.30;;;2.60;99.90;;;;;;5018181;28;20601;-81
2023/04/15 04:47:45;;;;;;;14.33;12.03;;;2.50;99.90;;;;;;5000656;28;20233;-80
2023/04/15 04:50:11;;;;;;;14.40;12.33;;;2.40;99.90;;;;;;5018083;28;20168;-81
2023/04/15 04:52:37;;;;;;;15.63;12.37;;;2.50;99.90;;;;;;5000108;28;20243;-81
2023/04/15 04:55:03;;;;;;;15.27;12.87;;;2.50;99.90;;;;;;5017728;28;20216;-81
2023/04/15 04:57:29;;;;;;;18.97;13.40;;;2.60;99.90;;;;;;5017696;28;20206;-82
2023/04/15 04:59:55;;;;;;;15.07;12.43;;;2.60;99.90;;;;;;5019822;28;20298;-81
2023/04/15 05:02:20;;;;;;;16.87;12.57;;;2.60;99.90;;;;;;5002345;28;20176;-81
2023/04/15 05:04:46;;;;;;;15.13;13.33;;;2.50;99.90;;;;;;5002855;28;20211;-82
2023/04/15 05:07:12;;;;;;;17.30;13.30;;;2.40;99.90;;;;;;5019280;28;20186;-81
2023/04/15 05:09:37;;;;;;;15.17;12.60;;;2.30;99.90;;;;;;5018693;28;20298;-81
2023/04/15 05:12:04;;;;;;;15.03;12.77;;;2.20;99.90;;;;;;5018319;28;20176;-81
2023/04/15 05:14:31;;;;;;;13.10;11.73;;;2.20;99.90;;;;;;5000460;28;20223;-81
2023/04/15 05:16:56;;;;;;;13.17;11.80;;;2.20;99.90;;;;;;5018473;28;20183;-81
2023/04/15 05:19:22;;;;;;;13.07;11.67;;;2.20;99.90;;;;;;5018394;28;20672;-81
2023/04/15 05:21:48;;;;;;;13.37;11.83;;;2.10;99.90;;;;;;5017635;28;20279;-81
2023/04/15 05:24:14;;;;;;;12.83;11.53;;;2.10;99.90;;;;;;5017733;28;20237;-82
2023/04/15 05:26:39;;;;;;;16.20;13.10;;;2.10;99.90;;;;;;5017331;28;20176;-82
2023/04/15 05:29:05;;;;;;;14.53;12.20;;;2.20;99.90;;;;;;4999468;28;20260;-82
2023/04/15 05:31:31;;;;;;;17.17;12.07;;;2.20;99.90;;;;;;4999485;28;20636;-82
2023/04/15 05:33:57;;;;;;;13.90;11.67;;;2.20;99.90;;;;;;5016416;28;20278;-80
2023/04/15 05:36:23;;;;;;;15.33;12.83;;;2.30;99.90;;;;;;5016978;28;20187;-81
2023/04/15 05:38:48;;;;;;;15.20;13.00;;;2.40;99.90;;;;;;4999304;28;20551;-81
2023/04/15 05:41:15;;;;;;;14.10;12.63;;;2.50;99.90;;;;;;5017243;28;20664;-81
2023/04/15 05:43:41;;;;;;;17.87;13.13;;;2.50;99.90;;;;;;5000001;28;20661;-81
2023/04/15 05:46:07;;;;;;;13.57;12.23;;;2.40;99.90;;;;;;5017437;28;20223;-80
2023/04/15 05:48:33;;;;;;;14.23;12.43;;;2.50;99.90;;;;;;5016236;28;20180;-81
2023/04/15 05:50:59;;;;;;;15.77;12.90;;;2.60;99.90;;;;;;5015752;28;20214;-80
2023/04/15 05:53:25;;;;;;;15.47;13.63;;;2.60;99.90;;;;;;5015575;28;20190;-80
2023/04/15 05:55:51;;;;;;;15.33;13.73;;;2.70;99.90;;;;;;4998200;28;20180;-82
2023/04/15 05:58:17;;;;;;;16.90;14.33;;;2.80;99.90;;;;;;4998411;28;20172;-82
2023/04/15 06:00:43;;;;;;;16.87;13.90;;;2.90;99.90;;;;;;5015298;28;20243;-80
2023/04/15 06:03:10;;;;;;;16.23;14.10;;;2.90;99.90;;;;;;5015377;28;20168;-81
2023/04/15 06:05:36;;;;;;;16.80;14.30;;;3.00;99.90;;;;;;4998282;28;20250;-81
2023/04/15 06:08:02;;;;;;;18.87;14.30;;;3.10;99.90;;;;;;4998476;28;20180;-81
2023/04/15 06:10:28;;;;;;;14.70;13.13;;;3.20;99.90;;;;;;4998363;28;20172;-81
2023/04/15 06:12:54;;;;;;;16.53;13.93;;;3.30;99.90;;;;;;5001138;28;20218;-81
2023/04/15 06:15:19;;;;;;;17.17;14.20;;;3.40;99.90;;;;;;5019231;28;20265;-79
2023/04/15 06:17:45;;;;;;;17.67;15.27;;;3.50;99.90;;;;;;5002076;28;20527;-79
2023/04/15 06:20:11;;;;;;;19.37;16.73;;;3.50;99.90;;;;;;5018934;28;20204;-79
2023/04/15 06:22:40;;;;;;;19.57;16.50;;;3.60;99.90;;;;;;5001425;28;20269;-79
2023/04/15 06:25:09;;;;;;;22.00;16.27;;;3.60;99.90;;;;;;5000663;28;20203;-79
2023/04/15 06:27:35;;;;;;;22.53;17.37;;;3.60;99.90;;;;;;5001093;28;20187;-81
2023/04/15 06:30:01;;;;;;;23.47;15.97;;;3.70;99.90;;;;;;5001828;28;20204;-80
2023/04/15 06:32:27;;;;;;;22.67;16.10;;;3.80;99.90;;;;;;5019360;28;20179;-79
2023/04/15 06:34:52;;;;;;;20.37;15.83;;;3.80;99.90;;;;;;5000755;28;20257;-79
2023/04/15 06:37:18;;;;;;;25.17;16.27;;;3.80;99.90;;;;;;5017888;28;20175;-80
2023/04/15 06:39:44;;;;;;;22.00;15.87;;;3.70;99.90;;;;;;4999089;28;20203;-80
2023/04/15 06:42:11;;;;;;;21.17;16.53;;;3.80;99.90;;;;;;4999289;28;20177;-80
2023/04/15 06:44:37;;;;;;;22.30;16.40;;;3.80;99.90;;;;;;5016856;28;20210;-80
2023/04/15 06:47:02;;;;;;;23.07;17.10;;;4.00;99.90;;;;;;5016621;28;20692;-80
2023/04/15 06:49:28;;;;;;;20.57;16.37;;;4.10;99.90;;;;;;5018173;28;20243;-80
2023/04/15 06:51:54;;;;;;;20.33;14.77;;;4.10;99.90;;;;;;4999191;28;20274;-80
2023/04/15 06:54:21;;;;;;;19.17;14.77;;;4.00;99.90;;;;;;5016559;28;20199;-80
2023/04/15 06:56:47;;;;;;;22.67;15.97;;;4.10;99.90;;;;;;5016781;28;20164;-80
2023/04/15 06:59:13;;;;;;;22.13;15.67;;;4.10;99.90;;;;;;5016754;28;20195;-80
2023/04/15 07:01:40;;;;;;;23.30;16.30;;;4.30;99.90;;;;;;5016887;28;20156;-80
2023/04/15 07:04:06;;;;;;;20.60;16.33;;;4.50;99.90;;;;;;5017114;28;20184;-79
2023/04/15 07:06:34;;;;;;;20.63;16.53;;;4.60;99.90;;;;;;5018779;28;20544;-79
2023/04/15 07:09:00;;;;;;;19.23;15.77;;;4.70;99.90;;;;;;5001810;28;20172;-79
2023/04/15 07:11:26;;;;;;;19.83;14.90;;;4.70;99.90;;;;;;5017419;28;20179;-79
2023/04/15 07:13:52;;;;;;;25.90;16.10;;;4.80;99.90;;;;;;5021641;28;20208;-79
2023/04/15 07:16:18;;;;;;;24.13;16.73;;;4.90;99.90;;;;;;5025876;28;20199;-79
2023/04/15 07:18:43;;;;;;;20.57;15.43;;;5.00;99.90;;;;;;5006806;28;20206;-80
2023/04/15 07:21:10;;;;;;;20.33;16.17;;;5.10;99.90;;;;;;5026724;28;20226;-80
2023/04/15 07:23:36;;;;;;;22.10;15.17;;;5.20;99.90;;;;;;5019795;28;20646;-79
2023/04/15 07:26:03;;;;;;;23.77;16.27;;;5.30;99.90;;;;;;5019394;28;20160;-79
2023/04/15 07:28:28;;;;;;;24.43;15.60;;;5.30;99.90;;;;;;5001725;28;20730;-80
2023/04/15 07:30:56;;;;;;;19.70;16.40;;;5.30;99.90;;;;;;5018552;28;20180;-79
2023/04/15 07:33:22;;;;;;;20.83;16.10;;;5.50;99.90;;;;;;5017120;28;20644;-79
2023/04/15 07:35:47;;;;;;;22.47;17.43;;;5.40;99.90;;;;;;5016096;28;20191;-80
2023/04/15 07:38:13;;;;;;;21.33;16.87;;;5.50;99.90;;;;;;4998317;28;20167;-80
2023/04/15 07:40:39;;;;;;;23.63;18.03;;;5.70;99.90;;;;;;5015953;28;20175;-79
2023/04/15 07:43:05;;;;;;;23.13;17.50;;;5.80;99.90;;;;;;5016084;28;20379;-79
2023/04/15 07:45:34;;;;;;;23.77;16.30;;;6.00;99.90;;;;;;5017433;28;20196;-79
2023/04/15 07:48:01;;;;;;;24.47;16.67;;;6.20;99.90;;;;;;5016629;28;20156;-79
2023/04/15 07:50:27;;;;;;;22.10;15.87;;;6.40;99.90;;;;;;5015760;28;20195;-79
2023/04/15 07:52:53;;;;;;;22.07;16.40;;;6.50;99.90;;;;;;5016853;28;20172;-79
2023/04/15 07:55:20;;;;;;;21.33;15.77;;;6.70;99.90;;;;;;5016350;28;20203;-80
2023/04/15 07:57:47;;;;;;;21.10;16.33;;;6.80;99.90;;;;;;4998819;28;20234;-80
2023/04/15 08:00:15;;;;;;;26.20;16.67;;;7.10;99.90;;;;;;5015899;28;20257;-80
2023/04/15 08:02:42;;;;;;;21.57;17.07;;;7.30;99.90;;;;;;5015794;28;20175;-79
2023/04/15 08:05:09;;;;;;;20.90;16.47;;;7.30;99.90;;;;;;5015975;28;20191;-79
2023/04/15 08:07:37;;;;;;;22.50;17.57;;;7.70;99.90;;;;;;4998253;28;20175;-79
2023/04/15 08:10:03;;;;;;;23.30;16.47;;;7.90;99.90;;;;;;5016036;28;20166;-79
2023/04/15 08:12:29;;;;;;;21.40;16.67;;;8.10;99.90;;;;;;4998992;28;20180;-79
2023/04/15 08:14:56;;;;;;;20.90;15.30;;;8.20;99.90;;;;;;4998050;28;20215;-79
2023/04/15 08:17:22;;;;;;;20.67;15.07;;;8.40;99.90;;;;;;5016758;28;20168;-79
2023/04/15 08:19:59;;;;;;;21.33;15.63;;;8.70;99.90;;;;;;5017002;28;20605;-79
2023/04/15 08:22:26;;;;;;;17.43;13.47;;;8.80;99.90;;;;;;4998849;28;20184;-79
2023/04/15 08:24:52;;;;;;;17.53;13.57;;;8.90;99.90;;;;;;4998089;28;20192;-79
2023/04/15 08:27:17;;;;;;;21.47;14.30;;;9.00;99.90;;;;;;5016551;28;20214;-79
2023/04/15 08:29:44;;;;;;;19.40;15.60;;;9.00;99.90;;;;;;5015688;28;20181;-79
2023/04/15 08:32:10;;;;;;;18.20;14.67;;;9.00;99.90;;;;;;5016427;28;20611;-79
2023/04/15 08:34:35;;;;;;;18.80;14.87;;;8.90;99.90;;;;;;5014967;28;20306;-79
2023/04/15 08:37:01;;;;;;;20.70;15.67;;;8.90;99.90;;;;;;4998379;28;20200;-79
2023/04/15 08:39:27;;;;;;;21.07;15.13;;;8.90;99.90;;;;;;5015603;28;20286;-79
2023/04/15 08:42:04;;;;;;;18.43;15.47;;;8.90;99.90;;;;;;5015796;28;20164;-79
2023/04/15 08:44:33;;;;;;;20.63;15.47;;;9.00;99.90;;;;;;5016192;28;20274;-79
2023/04/15 08:47:01;;;;;;;18.60;15.00;;;9.10;99.90;;;;;;4997595;28;20176;-79
2023/04/15 08:49:28;;;;;;;18.80;14.03;;;9.10;99.90;;;;;;4998052;28;20172;-80
2023/04/15 08:51:57;;;;;;;17.73;13.87;;;9.10;99.90;;;;;;5015482;28;20180;-81
2023/04/15 08:54:23;;;;;;;18.17;13.47;;;9.10;99.90;;;;;;5017042;28;20560;-80
2023/04/15 08:56:49;;;;;;;15.10;12.57;;;9.10;99.90;;;;;;5017073;28;20176;-80
2023/04/15 08:59:17;;;;;;;17.30;13.73;;;9.20;99.90;;;;;;5016398;28;20489;-80
2023/04/15 09:01:43;;;;;;;14.70;11.67;;;9.30;99.90;;;;;;4999162;28;20176;-80
2023/04/15 09:04:11;;;;;;;15.30;12.67;;;9.30;99.90;;;;;;5016397;28;20549;-88
2023/04/15 09:06:39;;;;;;;13.93;11.70;;;9.40;99.90;;;;;;4998966;28;20208;-85
2023/04/15 09:09:05;;;;;;;17.97;12.43;;;9.50;99.90;;;;;;5018138;28;20164;-85
2023/04/15 09:11:31;;;;;;;14.63;12.17;;;9.50;99.90;;;;;;5000147;28;20323;-84
2023/04/15 09:13:57;;;;;;;17.30;12.93;;;9.40;99.90;;;;;;4999995;28;20224;-85
2023/04/15 09:16:23;;;;;;;16.20;12.60;;;9.40;99.90;;;;;;5016963;28;20187;-86
2023/04/15 09:18:49;;;;;;;17.07;13.57;;;9.30;99.90;;;;;;5016852;28;20219;-85
2023/04/15 09:21:18;;;;;;;16.70;12.77;;;9.30;99.90;;;;;;5017370;28;20152;-85
2023/04/15 09:24:00;;;;;;;16.40;13.10;;;9.30;99.90;;;;;;4994800;28;20211;-85
2023/04/15 09:26:36;;;;;;;18.20;13.67;;;9.40;99.90;;;;;;5009800;28;20682;-83
2023/04/15 09:29:12;;;;;;;19.67;14.03;;;9.40;99.90;;;;;;5012993;28;20262;-80
2023/04/15 09:31:38;;;;;;;19.97;13.67;;;9.40;99.90;;;;;;5023440;28;20168;-80
2023/04/15 09:34:05;;;;;;;18.93;14.30;;;9.30;99.90;;;;;;4983224;28;20204;-80
2023/04/15 09:36:55;;;;;;;19.50;15.10;;;9.20;99.90;;;;;;5008837;28;20171;-80
2023/04/15 09:39:21;;;;;;;21.67;15.07;;;9.10;99.90;;;;;;4998409;28;20195;-84
2023/04/15 09:42:03;;;;;;;19.07;14.90;;;9.10;99.90;;;;;;4996148;28;20192;-85
2023/04/15 09:44:29;;;;;;;22.30;15.40;;;9.00;99.90;;;;;;4981133;28;20632;-84
2023/04/15 09:46:55;;;;;;;18.57;15.27;;;9.00;99.90;;;;;;4982555;28;20215;-84
2023/04/15 09:49:22;;;;;;;17.33;14.67;;;9.00;99.90;;;;;;5002462;28;20259;-84
2023/04/15 09:51:48;;;;;;;18.93;14.40;;;9.00;99.90;;;;;;4985032;28;20208;-84
2023/04/15 09:54:20;;;;;;;18.80;14.43;;;9.00;99.90;;;;;;5001458;28;20696;-83
2023/04/15 09:56:46;;;;;;;21.30;14.17;;;9.00;99.90;;;;;;4984701;28;20188;-83
2023/04/15 09:59:11;;;;;;;19.97;14.27;;;9.00;99.90;;;;;;4985258;28;20211;-83
2023/04/15 10:01:39;;;;;;;15.80;12.47;;;9.10;99.90;;;;;;4986827;28;20259;-83
2023/04/15 10:04:05;;;;;;;16.80;12.83;;;9.20;99.90;;;;;;5003560;28;20200;-83
2023/04/15 10:06:32;;;;;;;15.70;12.90;;;9.20;99.90;;;;;;4986332;28;20259;-84
2023/04/15 10:08:58;;;;;;;16.87;13.10;;;9.20;99.90;;;;;;4982976;28;20267;-79
2023/04/15 10:11:28;;;;;;;15.73;12.27;;;9.30;99.90;;;;;;5000337;28;20176;-79
2023/04/15 10:13:56;;;;;;;16.47;12.17;;;9.30;99.90;;;;;;5000535;28;20208;-79
2023/04/15 10:16:23;;;;;;;14.83;12.50;;;9.30;99.90;;;;;;4999941;28;20185;-80
2023/04/15 10:18:54;;;;;;;13.80;12.10;;;9.40;99.90;;;;;;4999727;28;20208;-82
2023/04/15 10:21:22;;;;;;;17.13;13.70;;;9.30;99.90;;;;;;4984536;28;20183;-82
2023/04/15 10:23:49;;;;;;;14.90;12.43;;;9.30;99.90;;;;;;5001788;28;20226;-83
2023/04/15 10:26:16;;;;;;;13.77;10.77;;;9.20;99.90;;;;;;5002540;28;20165;-82
2023/04/15 10:28:43;;;;;;;13.30;10.70;;;9.20;99.90;;;;;;4984382;28;20231;-83
2023/04/15 10:31:12;;;;;;;12.83;10.27;;;9.20;99.90;;;;;;5000750;28;20240;-83
2023/04/15 10:33:38;;;;;;;14.57;11.13;;;9.30;99.90;;;;;;5001765;28;20208;-83
2023/04/15 10:36:06;;;;;;;13.90;10.90;;;9.30;99.90;;;;;;5001082;28;20680;-83
2023/04/15 10:38:43;;;;;;;15.17;11.50;;;9.20;99.90;;;;;;4983809;28;20664;-83
2023/04/15 10:41:28;;;;;;;13.40;10.27;;;9.20;99.90;;;;;;4983787;28;20191;-84
2023/04/15 10:44:02;;;;;;;13.43;10.90;;;9.20;99.90;;;;;;4981628;28;20200;-83
2023/04/15 10:46:43;;;;;;;15.50;11.43;;;9.10;99.90;;;;;;4982165;28;20226;-83
2023/04/15 10:49:12;;;;;;;15.10;11.20;;;9.10;99.90;;;;;;4983240;28;20227;-83
2023/04/15 10:51:49;;;;;;;16.57;11.97;;;9.10;99.90;;;;;;4982772;28;20640;-84
2023/04/15 10:54:16;;;;;;;16.33;12.53;;;9.00;99.90;;;;;;4999947;28;20192;-83
2023/04/15 10:56:50;;;;;;;13.77;10.77;;;9.00;99.90;;;;;;5000272;28;20176;-81
2023/04/15 10:59:16;;;;;;;16.03;11.17;;;9.10;99.90;;;;;;4982718;28;20210;-80
2023/04/15 11:02:02;;;;;;;16.07;11.30;;;9.00;99.90;;;;;;4983551;28;20168;-80
2023/04/15 11:04:50;;;;;;;14.60;11.40;;;8.90;99.90;;;;;;4982887;28;20228;-80
2023/04/15 11:07:35;;;;;;;14.20;10.93;;;8.90;99.90;;;;;;4998056;28;20169;-81
2023/04/15 11:10:01;;;;;;;16.80;10.67;;;8.90;99.90;;;;;;4980789;28;20187;-81
2023/04/15 11:12:36;;;;;;;15.57;11.43;;;8.80;99.90;;;;;;4983218;28;20653;-81
2023/04/15 11:15:36;;;;;;;14.60;11.30;;;8.70;99.90;;;;;;4981003;28;20306;-82
2023/04/15 11:18:17;;;;;;;14.07;11.20;;;8.70;99.90;;;;;;4993350;28;20649;-80
2023/04/15 11:20:47;;;;;;;15.33;10.87;;;8.60;99.90;;;;;;4981893;28;20183;-79
2023/04/15 11:23:26;;;;;;;12.63;10.30;;;8.60;99.90;;;;;;4999726;28;20176;-79
2023/04/15 11:25:56;;;;;;;13.47;10.37;;;8.70;99.90;;;;;;4998119;28;20254;-80
2023/04/15 11:28:28;;;;;;;14.03;10.10;;;8.70;99.90;;;;;;4998549;28;20153;-79
2023/04/15 11:30:55;;;;;;;13.77;10.53;;;8.70;99.90;;;;;;4998999;28;20244;-80
2023/04/15 11:33:21;;;;;;;15.77;11.30;;;8.60;99.90;;;;;;4981274;28;20169;-80
2023/04/15 11:35:47;;;;;;;15.00;10.53;;;8.60;99.90;;;;;;4998767;28;20192;-80
2023/04/15 11:38:14;;;;;;;15.83;10.80;;;8.60;99.90;;;;;;4999571;28;20168;-81
2023/04/15 11:40:41;;;;;;;15.17;11.23;;;8.60;99.90;;;;;;4997392;28;20184;-81
2023/04/15 11:43:19;;;;;;;14.03;11.10;;;8.60;99.90;;;;;;4980283;28;20247;-81
2023/04/15 11:45:57;;;;;;;14.87;11.20;;;8.60;99.90;;;;;;4998008;28;20157;-81
2023/04/15 11:48:28;;;;;;;16.60;11.47;;;8.60;99.90;;;;;;4980344;28;20169;-81
2023/04/15 11:51:05;;;;;;;15.60;11.30;;;8.60;99.90;;;;;;4981082;28;20227;-81
2023/04/15 11:53:45;;;;;;;14.37;10.57;;;8.60;99.90;;;;;;4997347;28;20183;-81
2023/04/15 11:56:26;;;;;;;12.80;10.40;;;8.60;99.90;;;;;;4996630;28;20259;-81
2023/04/15 11:58:58;;;;;;;16.30;11.43;;;8.60;99.90;;;;;;4980326;28;20258;-84
2023/04/15 12:01:35;;;;;;;14.17;11.57;;;8.70;99.90;;;;;;4980938;28;20176;-83
2023/04/15 12:04:09;;;;;;;13.37;10.70;;;8.80;99.90;;;;;;5000156;28;20195;-82
2023/04/15 12:06:37;;;;;;;17.40;10.40;;;8.80;99.90;;;;;;4981675;28;20219;-83
2023/04/15 12:09:08;;;;;;;13.97;10.27;;;8.80;99.90;;;;;;5000300;28;20163;-83
2023/04/15 12:11:50;;;;;;;17.40;10.57;;;8.80;99.90;;;;;;4999141;28;20184;-83
2023/04/15 12:14:24;;;;;;;14.17;10.73;;;8.80;99.90;;;;;;4980564;28;20224;-83
2023/04/15 12:16:54;;;;;;;14.83;10.23;;;8.80;99.90;;;;;;4998777;28;20217;-83
2023/04/15 12:19:35;;;;;;;15.83;11.43;;;8.80;99.90;;;;;;4980623;28;20556;-84
2023/04/15 12:22:12;;;;;;;12.70;10.63;;;8.70;99.90;;;;;;4981041;28;20176;-83
2023/04/15 12:24:38;;;;;;;16.53;10.90;;;8.70;99.90;;;;;;4981519;28;20203;-83
2023/04/15 12:27:09;;;;;;;13.67;10.10;;;8.70;99.90;;;;;;4998498;28;20161;-82
2023/04/15 12:29:37;;;;;;;16.17;11.07;;;8.70;99.90;;;;;;4998211;28;20192;-81
2023/04/15 12:32:10;;;;;;;14.17;11.23;;;8.70;99.90;;;;;;4981411;28;20172;-80
2023/04/15 12:34:40;;;;;;;15.57;11.57;;;8.70;99.90;;;;;;4997997;28;20364;-80
2023/04/15 12:37:10;;;;;;;14.67;11.80;;;8.70;99.90;;;;;;4997767;28;20169;-79
2023/04/15 12:39:37;;;;;;;13.93;11.27;;;8.70;99.90;;;;;;4979572;28;20235;-80
2023/04/15 12:42:04;;;;;;;14.73;11.63;;;8.70;99.90;;;;;;4979964;28;20199;-79